Pell City, Alabama
Current Conditions -  °F | °C
As of 6:35 AM on Wednesday 26 Nov 2014 (Local Time) from KASN Reporting Station
Clear Clear  
Wind Chill: 34°   Ceiling: Unl
Heat Index: 37°   Visibility: 10mi
Dew Point: 30°   Wind: 5mph
Humidity: 74%   Direction: 290°WNW
Pressure: 30.13"   Gusts: NA
Location:  33.59°N, 86.29°W
Report Text: KASN 261235Z AUTO 29004KT 10SM CLR 03/M01 A3013 RMK AO2 T00301012
Loading
Personal Weather Stations






























Interactive Weather Map New forecast layout! Learn more

10-Day Weather Forecast

Advertisements
Track Severe Weather on mobile